sensor_id;sensor_type;location;lat;lon;timestamp;temperature;humidity
59309;DHT22;48433;53.016;-2.260;2023-07-20T00:01:06;12.00;99.90
59309;DHT22;48433;53.016;-2.260;2023-07-20T00:03:34;12.00;99.90
59309;DHT22;48433;53.016;-2.260;2023-07-20T00:06:01;12.00;99.90
59309;DHT22;48433;53.016;-2.260;2023-07-20T00:08:31;12.00;99.90
59309;DHT22;48433;53.016;-2.260;2023-07-20T00:10:59;12.00;99.90
59309;DHT22;48433;53.016;-2.260;2023-07-20T00:13:27;12.10;99.90
59309;DHT22;48433;53.016;-2.260;2023-07-20T00:15:55;12.00;99.90
59309;DHT22;48433;53.016;-2.260;2023-07-20T00:18:22;12.10;99.90
59309;DHT22;48433;53.016;-2.260;2023-07-20T00:20:50;12.10;99.90
59309;DHT22;48433;53.016;-2.260;2023-07-20T00:23:18;12.10;99.90
59309;DHT22;48433;53.016;-2.260;2023-07-20T00:25:48;12.10;99.90
59309;DHT22;48433;53.016;-2.260;2023-07-20T00:28:16;12.20;99.90
59309;DHT22;48433;53.016;-2.260;2023-07-20T00:30:44;12.20;99.90
59309;DHT22;48433;53.016;-2.260;2023-07-20T00:33:12;12.20;99.90
59309;DHT22;48433;53.016;-2.260;2023-07-20T00:35:40;12.20;99.90
59309;DHT22;48433;53.016;-2.260;2023-07-20T00:38:08;12.30;99.90
59309;DHT22;48433;53.016;-2.260;2023-07-20T00:40:36;12.30;99.90
59309;DHT22;48433;53.016;-2.260;2023-07-20T00:43:04;12.40;99.90
59309;DHT22;48433;53.016;-2.260;2023-07-20T00:45:34;12.40;99.90
59309;DHT22;48433;53.016;-2.260;2023-07-20T00:48:04;12.50;99.90
59309;DHT22;48433;53.016;-2.260;2023-07-20T00:50:32;12.50;99.90
59309;DHT22;48433;53.016;-2.260;2023-07-20T00:53:03;12.50;99.90
59309;DHT22;48433;53.016;-2.260;2023-07-20T00:55:32;12.60;99.90
59309;DHT22;48433;53.016;-2.260;2023-07-20T00:58:01;12.60;99.90
59309;DHT22;48433;53.016;-2.260;2023-07-20T01:00:29;12.70;99.90
59309;DHT22;48433;53.016;-2.260;2023-07-20T01:02:57;12.70;99.90
59309;DHT22;48433;53.016;-2.260;2023-07-20T01:05:38;12.80;99.90
59309;DHT22;48433;53.016;-2.260;2023-07-20T01:08:37;12.80;99.90
59309;DHT22;48433;53.016;-2.260;2023-07-20T01:11:16;12.90;99.90
59309;DHT22;48433;53.016;-2.260;2023-07-20T01:13:44;13.00;99.90
59309;DHT22;48433;53.016;-2.260;2023-07-20T01:16:11;12.90;99.90
59309;DHT22;48433;53.016;-2.260;2023-07-20T01:18:39;13.00;99.90
59309;DHT22;48433;53.016;-2.260;2023-07-20T01:21:11;13.00;99.90
59309;DHT22;48433;53.016;-2.260;2023-07-20T01:29:42;13.10;99.90
59309;DHT22;48433;53.016;-2.260;2023-07-20T01:32:14;13.10;99.90
59309;DHT22;48433;53.016;-2.260;2023-07-20T01:34:44;13.10;99.90
59309;DHT22;48433;53.016;-2.260;2023-07-20T01:37:13;13.10;99.90
59309;DHT22;48433;53.016;-2.260;2023-07-20T01:39:41;13.10;99.90
59309;DHT22;48433;53.016;-2.260;2023-07-20T01:42:09;13.10;99.90
59309;DHT22;48433;53.016;-2.260;2023-07-20T01:44:38;13.10;99.90
59309;DHT22;48433;53.016;-2.260;2023-07-20T01:47:05;13.10;99.90
59309;DHT22;48433;53.016;-2.260;2023-07-20T01:49:33;13.10;99.90
59309;DHT22;48433;53.016;-2.260;2023-07-20T01:52:01;13.10;99.90
59309;DHT22;48433;53.016;-2.260;2023-07-20T01:54:30;13.10;99.90
59309;DHT22;48433;53.016;-2.260;2023-07-20T01:56:58;13.10;99.90
59309;DHT22;48433;53.016;-2.260;2023-07-20T01:59:25;13.10;99.90
59309;DHT22;48433;53.016;-2.260;2023-07-20T02:01:53;13.10;99.90
59309;DHT22;48433;53.016;-2.260;2023-07-20T02:04:21;13.10;99.90
59309;DHT22;48433;53.016;-2.260;2023-07-20T02:06:49;13.10;99.90
59309;DHT22;48433;53.016;-2.260;2023-07-20T02:09:16;13.10;99.90
59309;DHT22;48433;53.016;-2.260;2023-07-20T02:11:44;13.10;99.90
59309;DHT22;48433;53.016;-2.260;2023-07-20T02:14:12;13.10;99.90
59309;DHT22;48433;53.016;-2.260;2023-07-20T02:16:39;13.10;99.90
59309;DHT22;48433;53.016;-2.260;2023-07-20T02:19:07;12.70;99.90
59309;DHT22;48433;53.016;-2.260;2023-07-20T02:21:35;13.10;99.90
59309;DHT22;48433;53.016;-2.260;2023-07-20T02:24:03;13.10;99.90
59309;DHT22;48433;53.016;-2.260;2023-07-20T02:26:30;13.10;99.90
59309;DHT22;48433;53.016;-2.260;2023-07-20T02:28:58;13.10;99.90
59309;DHT22;48433;53.016;-2.260;2023-07-20T02:31:25;13.10;99.90
59309;DHT22;48433;53.016;-2.260;2023-07-20T02:33:53;13.10;99.90
59309;DHT22;48433;53.016;-2.260;2023-07-20T02:36:21;13.10;99.90
59309;DHT22;48433;53.016;-2.260;2023-07-20T02:38:49;13.10;99.90
59309;DHT22;48433;53.016;-2.260;2023-07-20T02:41:17;13.10;99.90
59309;DHT22;48433;53.016;-2.260;2023-07-20T02:43:44;13.10;99.90
59309;DHT22;48433;53.016;-2.260;2023-07-20T02:46:12;13.20;99.90
59309;DHT22;48433;53.016;-2.260;2023-07-20T02:48:39;13.10;99.90
59309;DHT22;48433;53.016;-2.260;2023-07-20T02:51:07;13.10;99.90
59309;DHT22;48433;53.016;-2.260;2023-07-20T02:53:35;13.10;99.90
59309;DHT22;48433;53.016;-2.260;2023-07-20T02:56:03;13.10;99.90
59309;DHT22;48433;53.016;-2.260;2023-07-20T02:58:30;13.00;99.90
59309;DHT22;48433;53.016;-2.260;2023-07-20T03:00:58;13.10;99.90
59309;DHT22;48433;53.016;-2.260;2023-07-20T03:03:26;13.10;99.90
59309;DHT22;48433;53.016;-2.260;2023-07-20T03:05:53;13.10;99.90
59309;DHT22;48433;53.016;-2.260;2023-07-20T03:08:23;13.10;99.90
59309;DHT22;48433;53.016;-2.260;2023-07-20T03:10:51;13.10;99.90
59309;DHT22;48433;53.016;-2.260;2023-07-20T03:13:19;13.10;99.90
59309;DHT22;48433;53.016;-2.260;2023-07-20T03:15:46;13.10;99.90
59309;DHT22;48433;53.016;-2.260;2023-07-20T03:18:14;13.10;99.90
59309;DHT22;48433;53.016;-2.260;2023-07-20T03:20:42;13.10;99.90
59309;DHT22;48433;53.016;-2.260;2023-07-20T03:23:09;13.20;99.90
59309;DHT22;48433;53.016;-2.260;2023-07-20T03:25:37;13.20;99.90
59309;DHT22;48433;53.016;-2.260;2023-07-20T03:28:07;13.20;99.90
59309;DHT22;48433;53.016;-2.260;2023-07-20T03:30:35;13.20;99.90
59309;DHT22;48433;53.016;-2.260;2023-07-20T03:33:03;13.20;99.90
59309;DHT22;48433;53.016;-2.260;2023-07-20T03:35:31;13.20;99.90
59309;DHT22;48433;53.016;-2.260;2023-07-20T03:37:59;13.20;99.90
59309;DHT22;48433;53.016;-2.260;2023-07-20T03:40:26;13.30;99.90
59309;DHT22;48433;53.016;-2.260;2023-07-20T03:42:54;13.20;99.90
59309;DHT22;48433;53.016;-2.260;2023-07-20T03:45:22;13.20;99.90
59309;DHT22;48433;53.016;-2.260;2023-07-20T03:47:51;13.20;99.90
59309;DHT22;48433;53.016;-2.260;2023-07-20T03:50:19;13.20;99.90
59309;DHT22;48433;53.016;-2.260;2023-07-20T03:52:46;13.20;99.90
59309;DHT22;48433;53.016;-2.260;2023-07-20T03:55:15;13.20;99.90
59309;DHT22;48433;53.016;-2.260;2023-07-20T03:57:43;13.20;99.90
59309;DHT22;48433;53.016;-2.260;2023-07-20T04:00:11;13.20;99.90
59309;DHT22;48433;53.016;-2.260;2023-07-20T04:02:39;13.20;99.90
59309;DHT22;48433;53.016;-2.260;2023-07-20T04:05:07;13.20;99.90
59309;DHT22;48433;53.016;-2.260;2023-07-20T04:07:35;13.20;99.90
59309;DHT22;48433;53.016;-2.260;2023-07-20T04:10:03;13.20;99.90
59309;DHT22;48433;53.016;-2.260;2023-07-20T04:12:31;13.20;99.90
59309;DHT22;48433;53.016;-2.260;2023-07-20T04:14:58;13.20;99.90
59309;DHT22;48433;53.016;-2.260;2023-07-20T04:17:27;13.20;99.90
59309;DHT22;48433;53.016;-2.260;2023-07-20T04:19:55;13.20;99.90
59309;DHT22;48433;53.016;-2.260;2023-07-20T04:22:23;13.30;99.90
59309;DHT22;48433;53.016;-2.260;2023-07-20T04:24:50;13.30;99.90
59309;DHT22;48433;53.016;-2.260;2023-07-20T04:27:18;13.30;99.90
59309;DHT22;48433;53.016;-2.260;2023-07-20T04:29:46;13.30;99.90
59309;DHT22;48433;53.016;-2.260;2023-07-20T04:32:14;13.30;99.90
59309;DHT22;48433;53.016;-2.260;2023-07-20T04:34:42;13.30;99.90
59309;DHT22;48433;53.016;-2.260;2023-07-20T04:37:09;13.30;99.90
59309;DHT22;48433;53.016;-2.260;2023-07-20T04:39:37;13.30;99.90
59309;DHT22;48433;53.016;-2.260;2023-07-20T04:42:09;13.30;99.90
59309;DHT22;48433;53.016;-2.260;2023-07-20T04:44:37;13.30;99.90
59309;DHT22;48433;53.016;-2.260;2023-07-20T04:47:05;13.30;99.90
59309;DHT22;48433;53.016;-2.260;2023-07-20T04:49:36;13.30;99.90
59309;DHT22;48433;53.016;-2.260;2023-07-20T04:52:04;13.40;99.90
59309;DHT22;48433;53.016;-2.260;2023-07-20T04:54:32;13.40;99.90
59309;DHT22;48433;53.016;-2.260;2023-07-20T04:57:00;13.40;99.90
59309;DHT22;48433;53.016;-2.260;2023-07-20T04:59:28;13.40;99.90
59309;DHT22;48433;53.016;-2.260;2023-07-20T05:01:55;13.30;99.90
59309;DHT22;48433;53.016;-2.260;2023-07-20T05:04:23;13.40;99.90
59309;DHT22;48433;53.016;-2.260;2023-07-20T05:06:51;13.40;99.90
59309;DHT22;48433;53.016;-2.260;2023-07-20T05:09:19;13.40;99.90
59309;DHT22;48433;53.016;-2.260;2023-07-20T05:11:48;13.40;99.90
59309;DHT22;48433;53.016;-2.260;2023-07-20T05:14:16;13.40;99.90
59309;DHT22;48433;53.016;-2.260;2023-07-20T05:16:44;13.50;99.90
59309;DHT22;48433;53.016;-2.260;2023-07-20T05:19:11;13.50;99.90
59309;DHT22;48433;53.016;-2.260;2023-07-20T05:21:39;13.50;99.90
59309;DHT22;48433;53.016;-2.260;2023-07-20T05:24:07;13.50;99.90
59309;DHT22;48433;53.016;-2.260;2023-07-20T05:26:35;13.60;99.90
59309;DHT22;48433;53.016;-2.260;2023-07-20T05:29:02;13.60;99.90
59309;DHT22;48433;53.016;-2.260;2023-07-20T05:31:30;13.60;99.90
59309;DHT22;48433;53.016;-2.260;2023-07-20T05:33:59;13.60;99.90
59309;DHT22;48433;53.016;-2.260;2023-07-20T05:36:26;13.70;99.90
59309;DHT22;48433;53.016;-2.260;2023-07-20T05:38:54;13.80;99.90
59309;DHT22;48433;53.016;-2.260;2023-07-20T05:41:22;13.70;99.90
59309;DHT22;48433;53.016;-2.260;2023-07-20T05:43:50;13.70;99.90
59309;DHT22;48433;53.016;-2.260;2023-07-20T05:46:17;13.80;99.90
59309;DHT22;48433;53.016;-2.260;2023-07-20T05:48:45;13.80;99.90
59309;DHT22;48433;53.016;-2.260;2023-07-20T05:51:13;13.90;99.90
59309;DHT22;48433;53.016;-2.260;2023-07-20T05:53:41;13.90;99.90
59309;DHT22;48433;53.016;-2.260;2023-07-20T05:56:09;13.90;99.90
59309;DHT22;48433;53.016;-2.260;2023-07-20T05:58:39;13.90;99.90
59309;DHT22;48433;53.016;-2.260;2023-07-20T06:01:06;13.90;99.90
59309;DHT22;48433;53.016;-2.260;2023-07-20T06:03:34;14.00;99.90
59309;DHT22;48433;53.016;-2.260;2023-07-20T06:06:02;14.00;99.90
59309;DHT22;48433;53.016;-2.260;2023-07-20T06:08:31;14.00;99.90
59309;DHT22;48433;53.016;-2.260;2023-07-20T06:10:59;14.00;99.90
59309;DHT22;48433;53.016;-2.260;2023-07-20T06:13:27;14.00;99.90
59309;DHT22;48433;53.016;-2.260;2023-07-20T06:15:55;14.00;99.90
59309;DHT22;48433;53.016;-2.260;2023-07-20T06:18:25;14.10;99.90
59309;DHT22;48433;53.016;-2.260;2023-07-20T06:20:53;14.10;99.90
59309;DHT22;48433;53.016;-2.260;2023-07-20T06:23:20;14.10;99.90
59309;DHT22;48433;53.016;-2.260;2023-07-20T06:25:48;14.10;99.90
59309;DHT22;48433;53.016;-2.260;2023-07-20T06:28:16;14.20;99.90
59309;DHT22;48433;53.016;-2.260;2023-07-20T06:30:44;14.20;99.90
59309;DHT22;48433;53.016;-2.260;2023-07-20T06:33:11;14.20;99.90
59309;DHT22;48433;53.016;-2.260;2023-07-20T06:35:41;14.10;99.90
59309;DHT22;48433;53.016;-2.260;2023-07-20T06:38:10;14.20;99.90
59309;DHT22;48433;53.016;-2.260;2023-07-20T06:40:40;14.10;99.90
59309;DHT22;48433;53.016;-2.260;2023-07-20T06:43:08;14.10;99.90
59309;DHT22;48433;53.016;-2.260;2023-07-20T06:45:39;14.20;99.90
59309;DHT22;48433;53.016;-2.260;2023-07-20T06:50:34;14.20;99.90
59309;DHT22;48433;53.016;-2.260;2023-07-20T06:53:02;14.20;99.90
59309;DHT22;48433;53.016;-2.260;2023-07-20T06:55:31;14.30;99.90
59309;DHT22;48433;53.016;-2.260;2023-07-20T06:58:07;14.30;99.90
59309;DHT22;48433;53.016;-2.260;2023-07-20T07:00:35;14.30;99.90
59309;DHT22;48433;53.016;-2.260;2023-07-20T07:03:02;14.40;99.90
59309;DHT22;48433;53.016;-2.260;2023-07-20T07:05:30;14.40;99.90
59309;DHT22;48433;53.016;-2.260;2023-07-20T07:08:02;14.60;99.90
59309;DHT22;48433;53.016;-2.260;2023-07-20T07:10:30;14.50;99.90
59309;DHT22;48433;53.016;-2.260;2023-07-20T07:12:58;14.60;99.90
59309;DHT22;48433;53.016;-2.260;2023-07-20T07:15:26;14.70;99.90
59309;DHT22;48433;53.016;-2.260;2023-07-20T07:17:55;14.80;99.90
59309;DHT22;48433;53.016;-2.260;2023-07-20T07:20:23;14.90;99.90
59309;DHT22;48433;53.016;-2.260;2023-07-20T07:22:51;15.00;99.90
59309;DHT22;48433;53.016;-2.260;2023-07-20T07:25:19;15.00;99.90
59309;DHT22;48433;53.016;-2.260;2023-07-20T07:27:51;15.10;99.90
59309;DHT22;48433;53.016;-2.260;2023-07-20T07:30:20;15.10;99.90
59309;DHT22;48433;53.016;-2.260;2023-07-20T07:32:47;15.20;99.90
59309;DHT22;48433;53.016;-2.260;2023-07-20T07:35:15;15.10;99.90
59309;DHT22;48433;53.016;-2.260;2023-07-20T07:37:42;15.20;99.90
59309;DHT22;48433;53.016;-2.260;2023-07-20T07:40:30;15.20;99.90
59309;DHT22;48433;53.016;-2.260;2023-07-20T07:42:58;15.30;99.90
59309;DHT22;48433;53.016;-2.260;2023-07-20T07:45:25;15.30;99.90
59309;DHT22;48433;53.016;-2.260;2023-07-20T07:47:53;15.50;99.90
59309;DHT22;48433;53.016;-2.260;2023-07-20T07:50:22;15.50;99.90
59309;DHT22;48433;53.016;-2.260;2023-07-20T07:52:50;15.50;99.90
59309;DHT22;48433;53.016;-2.260;2023-07-20T07:55:17;15.60;99.90
59309;DHT22;48433;53.016;-2.260;2023-07-20T07:57:45;15.70;99.90
59309;DHT22;48433;53.016;-2.260;2023-07-20T08:00:15;15.70;99.90
59309;DHT22;48433;53.016;-2.260;2023-07-20T08:02:46;15.70;99.90
59309;DHT22;48433;53.016;-2.260;2023-07-20T08:05:15;15.80;99.90
59309;DHT22;48433;53.016;-2.260;2023-07-20T08:07:43;15.90;99.90
59309;DHT22;48433;53.016;-2.260;2023-07-20T08:10:11;15.90;99.90
59309;DHT22;48433;53.016;-2.260;2023-07-20T08:12:39;16.00;99.90
59309;DHT22;48433;53.016;-2.260;2023-07-20T08:15:07;16.10;99.90
59309;DHT22;48433;53.016;-2.260;2023-07-20T08:17:34;16.20;99.90
59309;DHT22;48433;53.016;-2.260;2023-07-20T08:20:02;16.30;99.90
59309;DHT22;48433;53.016;-2.260;2023-07-20T08:22:30;16.50;99.90
59309;DHT22;48433;53.016;-2.260;2023-07-20T08:24:58;16.60;99.90
59309;DHT22;48433;53.016;-2.260;2023-07-20T08:27:26;16.70;99.90
59309;DHT22;48433;53.016;-2.260;2023-07-20T08:29:53;16.80;99.90
59309;DHT22;48433;53.016;-2.260;2023-07-20T08:32:21;16.90;99.90
59309;DHT22;48433;53.016;-2.260;2023-07-20T08:34:48;16.90;99.90
59309;DHT22;48433;53.016;-2.260;2023-07-20T08:37:16;17.00;99.90
59309;DHT22;48433;53.016;-2.260;2023-07-20T08:39:43;17.00;99.90
59309;DHT22;48433;53.016;-2.260;2023-07-20T08:42:13;17.10;99.90
59309;DHT22;48433;53.016;-2.260;2023-07-20T08:44:42;17.10;99.90
59309;DHT22;48433;53.016;-2.260;2023-07-20T08:47:12;17.20;99.90
59309;DHT22;48433;53.016;-2.260;2023-07-20T08:49:41;17.30;99.90
59309;DHT22;48433;53.016;-2.260;2023-07-20T08:52:10;17.50;99.90
59309;DHT22;48433;53.016;-2.260;2023-07-20T08:54:39;17.80;99.90
59309;DHT22;48433;53.016;-2.260;2023-07-20T08:57:08;17.90;99.90
59309;DHT22;48433;53.016;-2.260;2023-07-20T08:59:38;18.10;99.90
59309;DHT22;48433;53.016;-2.260;2023-07-20T09:02:07;18.20;99.90
59309;DHT22;48433;53.016;-2.260;2023-07-20T09:04:36;18.50;99.90
59309;DHT22;48433;53.016;-2.260;2023-07-20T09:07:04;18.60;99.90
59309;DHT22;48433;53.016;-2.260;2023-07-20T09:09:32;18.70;99.90
59309;DHT22;48433;53.016;-2.260;2023-07-20T09:11:59;18.70;99.90
59309;DHT22;48433;53.016;-2.260;2023-07-20T09:14:30;18.60;99.90
59309;DHT22;48433;53.016;-2.260;2023-07-20T09:16:59;18.50;99.90
59309;DHT22;48433;53.016;-2.260;2023-07-20T09:19:26;18.40;99.90
59309;DHT22;48433;53.016;-2.260;2023-07-20T09:21:54;18.30;99.90
59309;DHT22;48433;53.016;-2.260;2023-07-20T09:24:21;18.40;99.90
59309;DHT22;48433;53.016;-2.260;2023-07-20T09:26:50;18.30;99.90
59309;DHT22;48433;53.016;-2.260;2023-07-20T09:29:19;18.10;99.90
59309;DHT22;48433;53.016;-2.260;2023-07-20T09:32:03;18.10;99.90
59309;DHT22;48433;53.016;-2.260;2023-07-20T09:34:32;18.00;99.90
59309;DHT22;48433;53.016;-2.260;2023-07-20T09:37:03;17.70;99.90
59309;DHT22;48433;53.016;-2.260;2023-07-20T09:39:32;17.40;99.90
59309;DHT22;48433;53.016;-2.260;2023-07-20T09:42:00;17.30;99.90
59309;DHT22;48433;53.016;-2.260;2023-07-20T09:44:35;17.20;99.90
59309;DHT22;48433;53.016;-2.260;2023-07-20T09:47:05;17.20;99.90
59309;DHT22;48433;53.016;-2.260;2023-07-20T09:49:42;17.40;99.90
59309;DHT22;48433;53.016;-2.260;2023-07-20T09:52:13;17.50;99.90
59309;DHT22;48433;53.016;-2.260;2023-07-20T09:54:44;17.60;99.90
59309;DHT22;48433;53.016;-2.260;2023-07-20T09:57:12;17.80;99.90
59309;DHT22;48433;53.016;-2.260;2023-07-20T09:59:42;17.90;99.90
59309;DHT22;48433;53.016;-2.260;2023-07-20T10:02:27;18.10;99.90
59309;DHT22;48433;53.016;-2.260;2023-07-20T10:05:02;18.20;99.90
59309;DHT22;48433;53.016;-2.260;2023-07-20T10:07:31;18.30;99.90
59309;DHT22;48433;53.016;-2.260;2023-07-20T10:10:02;18.40;99.90
59309;DHT22;48433;53.016;-2.260;2023-07-20T10:12:30;18.50;99.90
59309;DHT22;48433;53.016;-2.260;2023-07-20T10:15:11;18.60;99.90
59309;DHT22;48433;53.016;-2.260;2023-07-20T10:17:48;18.60;99.90
59309;DHT22;48433;53.016;-2.260;2023-07-20T10:20:19;18.60;99.90
59309;DHT22;48433;53.016;-2.260;2023-07-20T10:22:49;18.70;99.90
59309;DHT22;48433;53.016;-2.260;2023-07-20T10:25:20;18.80;99.90
59309;DHT22;48433;53.016;-2.260;2023-07-20T10:27:49;18.80;99.90
59309;DHT22;48433;53.016;-2.260;2023-07-20T10:30:17;18.70;99.90
59309;DHT22;48433;53.016;-2.260;2023-07-20T10:32:47;18.80;99.90
59309;DHT22;48433;53.016;-2.260;2023-07-20T10:35:16;18.80;99.90
59309;DHT22;48433;53.016;-2.260;2023-07-20T10:37:48;18.90;99.90
59309;DHT22;48433;53.016;-2.260;2023-07-20T10:40:38;19.10;99.90
59309;DHT22;48433;53.016;-2.260;2023-07-20T10:43:07;19.30;99.90
59309;DHT22;48433;53.016;-2.260;2023-07-20T10:48:13;20.00;99.90
59309;DHT22;48433;53.016;-2.260;2023-07-20T10:50:43;20.00;99.90
59309;DHT22;48433;53.016;-2.260;2023-07-20T10:53:19;20.30;99.90
59309;DHT22;48433;53.016;-2.260;2023-07-20T10:55:47;20.50;99.90
59309;DHT22;48433;53.016;-2.260;2023-07-20T10:58:18;20.80;98.00
59309;DHT22;48433;53.016;-2.260;2023-07-20T11:01:01;20.80;98.40
59309;DHT22;48433;53.016;-2.260;2023-07-20T11:03:32;20.80;98.40
59309;DHT22;48433;53.016;-2.260;2023-07-20T11:09:09;21.40;97.00
59309;DHT22;48433;53.016;-2.260;2023-07-20T11:11:39;21.60;96.60
59309;DHT22;48433;53.016;-2.260;2023-07-20T11:14:09;21.90;94.90
59309;DHT22;48433;53.016;-2.260;2023-07-20T11:19:21;22.50;93.30
59309;DHT22;48433;53.016;-2.260;2023-07-20T11:21:55;22.60;93.20
59309;DHT22;48433;53.016;-2.260;2023-07-20T11:24:31;22.80;92.80
59309;DHT22;48433;53.016;-2.260;2023-07-20T11:26:59;22.90;92.30
59309;DHT22;48433;53.016;-2.260;2023-07-20T11:29:28;23.20;91.50
59309;DHT22;48433;53.016;-2.260;2023-07-20T11:32:01;23.30;92.00
59309;DHT22;48433;53.016;-2.260;2023-07-20T11:34:33;23.20;90.90
59309;DHT22;48433;53.016;-2.260;2023-07-20T11:37:01;22.90;90.90
59309;DHT22;48433;53.016;-2.260;2023-07-20T11:39:33;22.80;90.60
59309;DHT22;48433;53.016;-2.260;2023-07-20T11:42:00;22.80;91.00
59309;DHT22;48433;53.016;-2.260;2023-07-20T11:44:29;23.20;90.70
59309;DHT22;48433;53.016;-2.260;2023-07-20T11:47:07;23.40;90.00
59309;DHT22;48433;53.016;-2.260;2023-07-20T11:49:39;23.40;87.00
59309;DHT22;48433;53.016;-2.260;2023-07-20T11:52:08;23.50;88.70
59309;DHT22;48433;53.016;-2.260;2023-07-20T11:54:39;24.00;87.70
59309;DHT22;48433;53.016;-2.260;2023-07-20T11:57:15;24.20;85.40
59309;DHT22;48433;53.016;-2.260;2023-07-20T12:00:02;24.80;82.60
59309;DHT22;48433;53.016;-2.260;2023-07-20T12:02:33;25.30;81.50
59309;DHT22;48433;53.016;-2.260;2023-07-20T12:05:02;25.70;79.70
59309;DHT22;48433;53.016;-2.260;2023-07-20T12:07:35;25.70;77.70
59309;DHT22;48433;53.016;-2.260;2023-07-20T12:10:09;25.50;74.80
59309;DHT22;48433;53.016;-2.260;2023-07-20T12:12:42;25.40;76.60
59309;DHT22;48433;53.016;-2.260;2023-07-20T12:15:21;25.10;75.30
59309;DHT22;48433;53.016;-2.260;2023-07-20T12:17:56;24.70;76.80
59309;DHT22;48433;53.016;-2.260;2023-07-20T12:22:55;24.40;77.30
59309;DHT22;48433;53.016;-2.260;2023-07-20T12:25:23;24.20;77.00
59309;DHT22;48433;53.016;-2.260;2023-07-20T12:27:50;24.10;76.00
59309;DHT22;48433;53.016;-2.260;2023-07-20T12:30:18;24.00;75.00
59309;DHT22;48433;53.016;-2.260;2023-07-20T12:32:46;24.20;75.20
59309;DHT22;48433;53.016;-2.260;2023-07-20T12:35:13;24.30;74.60
59309;DHT22;48433;53.016;-2.260;2023-07-20T12:37:42;24.30;75.00
59309;DHT22;48433;53.016;-2.260;2023-07-20T12:40:10;24.20;72.60
59309;DHT22;48433;53.016;-2.260;2023-07-20T12:42:38;24.00;74.10
59309;DHT22;48433;53.016;-2.260;2023-07-20T12:45:06;23.70;73.90
59309;DHT22;48433;53.016;-2.260;2023-07-20T12:47:34;23.40;74.50
59309;DHT22;48433;53.016;-2.260;2023-07-20T12:52:31;23.10;73.30
59309;DHT22;48433;53.016;-2.260;2023-07-20T12:54:59;23.10;73.30
59309;DHT22;48433;53.016;-2.260;2023-07-20T12:57:28;23.00;74.40
59309;DHT22;48433;53.016;-2.260;2023-07-20T12:59:57;23.10;74.20
59309;DHT22;48433;53.016;-2.260;2023-07-20T13:02:25;23.10;72.60
59309;DHT22;48433;53.016;-2.260;2023-07-20T13:04:52;23.80;72.70
59309;DHT22;48433;53.016;-2.260;2023-07-20T13:07:32;23.20;73.10
59309;DHT22;48433;53.016;-2.260;2023-07-20T13:10:03;23.20;72.90
59309;DHT22;48433;53.016;-2.260;2023-07-20T13:12:32;23.40;71.20
59309;DHT22;48433;53.016;-2.260;2023-07-20T13:15:05;23.50;71.20
59309;DHT22;48433;53.016;-2.260;2023-07-20T13:17:34;23.60;71.60
59309;DHT22;48433;53.016;-2.260;2023-07-20T13:20:03;23.50;70.80
59309;DHT22;48433;53.016;-2.260;2023-07-20T13:22:32;23.50;71.50
59309;DHT22;48433;53.016;-2.260;2023-07-20T13:25:00;23.10;71.60
59309;DHT22;48433;53.016;-2.260;2023-07-20T13:27:28;23.10;72.00
59309;DHT22;48433;53.016;-2.260;2023-07-20T13:29:55;23.20;73.00
59309;DHT22;48433;53.016;-2.260;2023-07-20T13:32:25;23.20;72.80
59309;DHT22;48433;53.016;-2.260;2023-07-20T13:34:53;23.10;73.80
59309;DHT22;48433;53.016;-2.260;2023-07-20T13:39:49;22.60;75.80
59309;DHT22;48433;53.016;-2.260;2023-07-20T13:42:16;22.30;76.20
59309;DHT22;48433;53.016;-2.260;2023-07-20T13:44:46;22.20;76.70
59309;DHT22;48433;53.016;-2.260;2023-07-20T13:47:14;22.10;76.10
59309;DHT22;48433;53.016;-2.260;2023-07-20T13:49:44;22.10;76.30
59309;DHT22;48433;53.016;-2.260;2023-07-20T13:52:14;22.00;75.60
59309;DHT22;48433;53.016;-2.260;2023-07-20T13:54:45;22.00;73.80
59309;DHT22;48433;53.016;-2.260;2023-07-20T13:57:16;21.90;73.00
59309;DHT22;48433;53.016;-2.260;2023-07-20T13:59:44;21.80;73.80
59309;DHT22;48433;53.016;-2.260;2023-07-20T14:02:14;21.60;74.60
59309;DHT22;48433;53.016;-2.260;2023-07-20T14:04:45;21.60;76.00
59309;DHT22;48433;53.016;-2.260;2023-07-20T14:07:13;21.50;76.50
59309;DHT22;48433;53.016;-2.260;2023-07-20T14:12:15;21.50;76.50
59309;DHT22;48433;53.016;-2.260;2023-07-20T14:14:46;21.40;76.50
59309;DHT22;48433;53.016;-2.260;2023-07-20T14:19:41;21.30;77.90
59309;DHT22;48433;53.016;-2.260;2023-07-20T14:22:10;21.30;77.80
59309;DHT22;48433;53.016;-2.260;2023-07-20T14:27:07;21.20;78.00
59309;DHT22;48433;53.016;-2.260;2023-07-20T14:29:34;21.10;79.10
59309;DHT22;48433;53.016;-2.260;2023-07-20T14:32:04;21.10;80.40
59309;DHT22;48433;53.016;-2.260;2023-07-20T14:37:06;21.00;78.50
59309;DHT22;48433;53.016;-2.260;2023-07-20T14:39:34;21.10;78.50
59309;DHT22;48433;53.016;-2.260;2023-07-20T14:42:01;21.10;79.20
59309;DHT22;48433;53.016;-2.260;2023-07-20T14:44:33;21.30;77.20
59309;DHT22;48433;53.016;-2.260;2023-07-20T14:47:00;21.40;78.00
59309;DHT22;48433;53.016;-2.260;2023-07-20T14:49:40;21.50;76.60
59309;DHT22;48433;53.016;-2.260;2023-07-20T14:52:08;21.50;77.30
59309;DHT22;48433;53.016;-2.260;2023-07-20T14:54:39;21.60;74.40
59309;DHT22;48433;53.016;-2.260;2023-07-20T14:57:07;21.60;75.00
59309;DHT22;48433;53.016;-2.260;2023-07-20T14:59:42;21.80;72.70
59309;DHT22;48433;53.016;-2.260;2023-07-20T15:02:12;22.30;73.00
59309;DHT22;48433;53.016;-2.260;2023-07-20T15:04:49;22.40;73.40
59309;DHT22;48433;53.016;-2.260;2023-07-20T15:07:19;22.90;72.70
59309;DHT22;48433;53.016;-2.260;2023-07-20T15:09:48;23.70;67.50
59309;DHT22;48433;53.016;-2.260;2023-07-20T15:12:15;23.80;67.00
59309;DHT22;48433;53.016;-2.260;2023-07-20T15:14:43;23.90;67.00
59309;DHT22;48433;53.016;-2.260;2023-07-20T15:17:11;24.00;66.10
59309;DHT22;48433;53.016;-2.260;2023-07-20T15:19:39;24.00;66.00
59309;DHT22;48433;53.016;-2.260;2023-07-20T15:22:08;24.20;68.00
59309;DHT22;48433;53.016;-2.260;2023-07-20T15:24:36;24.90;68.00
59309;DHT22;48433;53.016;-2.260;2023-07-20T15:27:04;25.60;65.70
59309;DHT22;48433;53.016;-2.260;2023-07-20T15:29:32;26.10;62.00
59309;DHT22;48433;53.016;-2.260;2023-07-20T15:32:03;26.10;62.60
59309;DHT22;48433;53.016;-2.260;2023-07-20T15:34:31;26.00;61.70
59309;DHT22;48433;53.016;-2.260;2023-07-20T15:36:59;25.80;60.80
59309;DHT22;48433;53.016;-2.260;2023-07-20T15:39:26;25.80;60.30
59309;DHT22;48433;53.016;-2.260;2023-07-20T15:41:55;25.80;61.90
59309;DHT22;48433;53.016;-2.260;2023-07-20T15:44:23;26.10;59.60
59309;DHT22;48433;53.016;-2.260;2023-07-20T15:46:51;26.10;60.10
59309;DHT22;48433;53.016;-2.260;2023-07-20T15:51:48;25.60;58.90
59309;DHT22;48433;53.016;-2.260;2023-07-20T15:54:15;25.30;59.00
59309;DHT22;48433;53.016;-2.260;2023-07-20T15:56:44;24.90;59.30
59309;DHT22;48433;53.016;-2.260;2023-07-20T15:59:14;24.60;59.90
59309;DHT22;48433;53.016;-2.260;2023-07-20T16:01:43;24.60;60.70
59309;DHT22;48433;53.016;-2.260;2023-07-20T16:04:13;24.70;61.40